Tropical Cyclones
[Index]
Main Index Home Page Stock Weather Photos Extreme Storms Discussion Storm News and Storm Chasing Reports Tropical Cyclones / Hurricanes / Typhoons Weather Data and Links Wild Fires / Bushfires Weather Observation Techniques Weather Picture Catalogue Tornado Pictures and Reports Stock Video Footage and DVDs for sale
Season 2016-2017 Tropical Cyclone ELLA Track Map
Season 2016-2017 Summaries (Operational Data): [AU] [SIO] [SPAC] [SH]
<<- Previous TC | 2016-2017 Season | Next TC ->>

click for intensity scale information  Lat/long Grid: Show Hide

 Date Labels: Show Hide

Operational Tropical Cyclone Data : JTWC Advisories

Name: ELLA
Number: 1719

05 May 2017 18:00 UTC to 15 May 2017 12:00 UTC

    date/time    lat    long     hPa   cat  kts
2017-05-05 18   16.7   176.6W   1010         15          
2017-05-06 00   16.9   177.3W   1010         15          
2017-05-06 06   17.1   177.9W   1010         15          
2017-05-06 12   16.8   175.7W   1010         15          
2017-05-06 18   17.6   177.2W   1007         20          
2017-05-07 00   17.6   176.5W   1007         20          
2017-05-07 06   17.4   175.8W   1007         20          
2017-05-07 12   17.3   175.0W   1007         20          
2017-05-07 18   16.9   174.5W   1007         20          
2017-05-08 00   16.6   173.9W   1004         25          
2017-05-08 06   16.3   173.2W   1005         25          
2017-05-08 12   15.9   172.5W   1003         30          
2017-05-08 18   15.5   172.4W   1003         30          
2017-05-09 00   15.2   172.8W   1004    1    35          
2017-05-09 06   15.0   173.0W   1004    1    40          
2017-05-09 12   14.9   173.2W    988    1    45          
2017-05-09 18   14.9   173.4W    988    1    45          
2017-05-10 00   14.8   174.4W   1000    1    45          
2017-05-10 06   14.6   175.3W    998    1    45          
2017-05-10 12   14.4   175.9W    996    2    50          
2017-05-10 18   14.3   176.6W    985    2    50          
2017-05-11 00   14.1   176.9W    982    2    55          
2017-05-11 06   14.0   177.2W    978    2    60          
2017-05-11 12   14.1   177.5W    974    3    65          
2017-05-11 18   14.0   177.8W    986    3    70          
2017-05-12 00   13.9   178.0W    967    3    75          
2017-05-12 06   13.7   178.2W    986    3    70          
2017-05-12 12   13.6   178.4W    985    3    70          
2017-05-12 18   13.6   178.6W    985    3    70          
2017-05-13 00   13.6   178.8W    988    3    65          
2017-05-13 06   13.6   179.1W    990    2    60          
2017-05-13 12   13.4   179.5W    996    2    55          
2017-05-13 18   13.1   179.9W    996    2    55          
2017-05-14 00   12.9   179.7    1002    1    45          
2017-05-14 06   12.5   177.7    1000    1    45          
2017-05-14 12   12.2   176.5    1000         30          
2017-05-14 18   12.0   175.2    1000         30          
2017-05-15 00   12.5   174.0    1004         25          
2017-05-15 06   13.0   172.7    1004         25          
2017-05-15 12   13.0   171.8    1004         25          
Winds are 10-min average.

Tropical cyclone tracks developed by Michael Bath using operational warnings and advisories and Google Maps.


[Australian Severe Weather index] [Copyright Notice] [Email Contacts] [Search This Site] [Privacy Policy]
Document: tropical_cyclone_ella.htm Updated: 4 July 2017